Terminal Aerodrome Forecast
Issued by NWS State College, PA

Home | Current Version | Previous Version | Text Only | Print | Product List | Glossary On
Versions: 1 2 3 4 5 6 7 8 9 10 11 12 13 14 15 16 17 18 19 20 21 22 23 24 25 26 27 28
000
FTUS41 KCTP 071458 AAC
TAFMDT
TAF AMD
KMDT 071458Z 0715/0812 30004KT 5SM BR SCT006 SCT023 BKN200
     FM071600 30008G20KT P6SM SCT040
     FM072300 29007KT P6SM SKC=

USA.gov is the U.S. government's official web portal to all federal, state and local government web resources and services.